São Tomé International Airport

Airport
ICAO code: 
FPST
IATA Code: 
TMS
Summary
ICAO Region: 
AFI
Location: 
São Tomé, São Tomé Island,
Serving: 
São Tomé
Elevation: 
33 ft
Coordinates: 
Aerial View: 
0° 22' 41.016" N, 6° 42' 43.992" E
Airport BS: 
Bird Strike
Metar
Observation
FPST 180700Z 22004KT 9999 FEW025CB BKN110 23/22 Q1014 NOSI
Station
S. Tome
Date/Time
2022-01-18 07:00:00
Wind direction
220°
Wind speed
04 kts
Lowest cloud amount
few clouds
Temperature
23°C
Dew point
22°C
Humidity
94%
QNH
1014 hPa
Weather condition
n/a

International airport serving the islands of Sao Tome and Principe. There is no Stopway or RESA.

Climatology

Tropical Savanna climate (Köppen climate classification Aw)

Runways

Designator Length Width Surface Rops
11/29 2220 45 ASP No/No
Airport map: 
Aerial View: 

Accidents and Serious Incidents at or in the vicinity of FPST

SKYbrary Partners:

Safety knowledge contributed by: